Caldwell, NJ (07006)

2:25 AM EST on February 10, 2016 (GMT -0500)
W2IRT | | Change Station
CLOSE
Current Station
Personal Weather Station
Location: West Caldwell, NJ
Elevation: 261 ft
Nearby Weather Stations

Elev 261 ft 40.86 °N, 74.28 °W | Updated 0 second ago

Overcast
Overcast
31.4 °F
Feels Like 31 °F
N
0.0
Wind Variable Wind from SW
Gusts 1.0 mph

Today
High -- | Low -- °F
--% Chance of Precip.
Yesterday
High -- | Low -- °F
Precip. -- in
Pressure 29.59 in
Visibility 5.0 miles
Clouds Few 700 ft
Overcast 2100 ft
Windchill 31 °F
Dew Point 28 °F
Humidity 86%
Rainfall 0.00 in
Snow Depth Not available.
6:58 AM 5:25 PM
Waxing Crescent, 4% visible
SPECI KCDW 100708Z AUTO 00000KT 5SM BR FEW007 OVC021 M01/M02 A2959 RMK AO2 T10061022 TSNO
Pressure 29.59 in
Visibility 5.0 miles
Clouds Few 700 ft
Overcast 2100 ft
Windchill 31 °F
Dew Point 28 °F
Humidity 86%
Rainfall 0.00 in
Snow Depth Not available.
6:58 AM 5:25 PM
Waxing Crescent, 4% visible
SPECI KCDW 100708Z AUTO 00000KT 5SM BR FEW007 OVC021 M01/M02 A2959 RMK AO2 T10061022 TSNO

10-Day Weather Forecast

Almanac

Astronomy

Feb. 10, 2016 Rise Set
Actual Time
Civil Twilight
Nautical Twilight
Astronomical Twilight
Moon
Length of Visible Light
Length of Day
Tomorrow will be .
, % of the Moon is Illuminated

Today's Extremes

State Highs State Lows

Community

WunderPhotos

Upload Photos

1,891,826 photos uploaded!

WunderBlog® & News

Nearby

Air Quality

  Air Quality AQ Index Pollutant
Not available.

Snow Depth

Station Depth Elevation

Earthquake Activity

City Distance Mag. Time & Date
Minimum magnitude displayed is 2.5.

Coastal Water Temperatures

Place Temperature

Stations

Nearby Weather Stations

Station Location Temp. Windchill Dew Point Humidity Wind Precip. Elev Updated Type
                   

Watches & Warnings

There are currently no watches in effect.